Time;durP1;ratioP1;P1;durP2;ratioP2;P2;SDS_P1;SDS_P2;PMS_P1;PMS_P2;Temp;Humidity;BMP_temperature;BMP_pressure;BME280_temperature;BME280_humidity;BME280_pressure;Samples;Min_cycle;Max_cycle;Signal;HPM_P1;HPM_P2
2023/10/16 00:01:09;;;;;;;4.70;4.50;;;8.40;84.80;;;;;;5093308;28;20481;-85
2023/10/16 00:03:41;;;;;;;4.70;4.50;;;8.20;86.50;;;;;;5095037;28;21034;-83
2023/10/16 00:06:12;;;;;;;4.30;4.10;;;8.20;88.80;;;;;;5092286;28;20488;-84
2023/10/16 00:08:48;;;;;;;4.80;4.60;;;8.20;90.60;;;;;;5090507;28;20529;-84
2023/10/16 00:11:18;;;;;;;4.60;4.50;;;8.10;92.00;;;;;;5091842;28;20470;-84
2023/10/16 00:13:49;;;;;;;4.63;4.53;;;8.20;93.90;;;;;;5094754;28;20457;-84
2023/10/16 00:16:20;;;;;;;5.43;5.03;;;8.10;94.30;;;;;;5090958;28;20563;-85
2023/10/16 00:18:50;;;;;;;4.83;4.63;;;8.10;95.50;;;;;;5094169;28;20506;-84
2023/10/16 00:21:19;;;;;;;4.60;4.47;;;8.20;93.20;;;;;;5094154;28;20466;-84
2023/10/16 00:23:49;;;;;;;4.90;4.70;;;8.20;90.30;;;;;;5094410;28;20443;-85
2023/10/16 00:26:19;;;;;;;4.53;4.43;;;8.10;87.70;;;;;;5091220;28;20438;-84
2023/10/16 00:29:00;;;;;;;4.53;4.23;;;8.10;88.10;;;;;;5092076;28;20500;-85
2023/10/16 00:31:32;;;;;;;4.30;4.10;;;8.10;93.70;;;;;;5091940;28;21057;-85
2023/10/16 00:34:02;;;;;;;4.33;4.13;;;8.10;95.60;;;;;;5094834;28;20454;-85
2023/10/16 00:36:31;;;;;;;4.50;4.40;;;8.00;95.60;;;;;;5093037;28;20454;-83
2023/10/16 00:39:12;;;;;;;4.37;4.27;;;8.00;95.50;;;;;;5092883;28;20481;-85
2023/10/16 00:41:42;;;;;;;4.70;4.60;;;7.90;96.70;;;;;;5092920;28;20812;-84
2023/10/16 00:44:10;;;;;;;4.40;4.20;;;7.90;95.50;;;;;;5091351;28;20462;-84
2023/10/16 00:46:39;;;;;;;4.53;4.43;;;7.90;96.00;;;;;;5091984;28;20453;-84
2023/10/16 00:49:12;;;;;;;4.70;4.50;;;7.90;95.40;;;;;;5095139;28;20469;-84
2023/10/16 00:51:42;;;;;;;4.80;4.60;;;7.80;95.40;;;;;;5097565;28;20482;-86
2023/10/16 00:54:18;;;;;;;4.60;4.50;;;7.70;96.10;;;;;;5092102;28;20493;-85
2023/10/16 00:56:49;;;;;;;4.97;4.87;;;7.80;99.90;;;;;;5102632;28;21030;-86
2023/10/16 00:59:17;;;;;;;4.60;4.40;;;7.80;99.20;;;;;;5109972;28;20473;-83
2023/10/16 01:01:46;;;;;;;4.43;4.33;;;7.80;96.90;;;;;;5091219;28;20473;-84
2023/10/16 01:04:17;;;;;;;4.63;4.43;;;7.80;95.90;;;;;;5088058;28;20465;-86
2023/10/16 01:06:45;;;;;;;4.53;4.43;;;7.70;96.60;;;;;;5093439;28;20553;-85
2023/10/16 01:09:22;;;;;;;4.60;4.50;;;7.80;98.60;;;;;;5093843;28;20470;-85
2023/10/16 01:11:52;;;;;;;4.63;4.53;;;7.80;95.60;;;;;;5098623;28;20469;-84
2023/10/16 01:14:20;;;;;;;4.77;4.53;;;7.80;95.80;;;;;;5095957;28;20453;-85
2023/10/16 01:16:50;;;;;;;4.70;4.37;;;7.60;93.60;;;;;;5091446;28;20454;-84
2023/10/16 01:19:20;;;;;;;4.53;4.23;;;7.50;95.20;;;;;;5093319;28;20453;-84
2023/10/16 01:21:49;;;;;;;5.00;4.80;;;7.60;95.70;;;;;;5092304;28;20477;-84
2023/10/16 01:24:19;;;;;;;4.80;4.60;;;7.60;99.10;;;;;;5094043;28;20450;-86
2023/10/16 01:26:49;;;;;;;4.97;4.87;;;7.50;99.90;;;;;;5098074;28;20497;-85
2023/10/16 01:29:17;;;;;;;5.30;5.10;;;7.50;99.90;;;;;;5093574;28;20456;-85
2023/10/16 01:31:50;;;;;;;4.50;4.40;;;7.50;99.90;;;;;;5093593;28;20479;-83
2023/10/16 01:34:22;;;;;;;5.50;5.30;;;7.40;97.70;;;;;;5089397;28;21251;-84
2023/10/16 01:36:51;;;;;;;5.33;5.00;;;7.40;99.90;;;;;;5090006;28;20449;-85
2023/10/16 01:42:11;;;;;;;4.80;4.70;;;7.50;99.90;;;;;;5093161;28;21045;-85
2023/10/16 01:44:40;;;;;;;5.30;5.10;;;7.50;99.90;;;;;;5093352;28;20457;-84
2023/10/16 01:47:13;;;;;;;5.50;5.30;;;7.40;99.90;;;;;;5095811;28;20490;-85
2023/10/16 01:49:42;;;;;;;5.30;5.10;;;7.40;99.90;;;;;;5097704;28;20466;-85
2023/10/16 01:52:14;;;;;;;5.00;4.80;;;7.40;99.90;;;;;;5094083;28;20484;-85
2023/10/16 01:54:46;;;;;;;5.70;5.30;;;7.40;99.90;;;;;;5088234;28;20999;-83
2023/10/16 01:57:15;;;;;;;5.43;5.13;;;7.40;99.90;;;;;;5091979;28;20469;-83
2023/10/16 01:59:47;;;;;;;5.20;5.00;;;7.50;99.90;;;;;;5093796;28;20481;-83
2023/10/16 02:02:17;;;;;;;5.10;4.90;;;7.50;99.90;;;;;;5091284;28;20469;-83
2023/10/16 02:04:46;;;;;;;5.13;4.80;;;7.50;99.90;;;;;;5094948;28;20464;-83
2023/10/16 02:07:14;;;;;;;4.90;4.70;;;7.40;99.90;;;;;;5093537;28;20457;-83
2023/10/16 02:09:45;;;;;;;5.30;5.00;;;7.30;99.90;;;;;;5095918;28;20449;-83
2023/10/16 02:12:16;;;;;;;4.87;4.67;;;7.20;99.90;;;;;;5094545;28;20536;-82
2023/10/16 02:14:45;;;;;;;4.93;4.83;;;7.10;99.80;;;;;;5094046;28;20460;-83
2023/10/16 02:17:21;;;;;;;4.90;4.70;;;7.20;99.90;;;;;;5096058;28;20453;-82
2023/10/16 02:19:50;;;;;;;5.27;5.07;;;7.20;99.90;;;;;;5093398;28;20596;-83
2023/10/16 02:22:22;;;;;;;4.80;4.60;;;7.20;99.90;;;;;;5093839;28;20497;-83
2023/10/16 02:24:52;;;;;;;5.33;5.13;;;7.10;99.90;;;;;;5091307;28;20454;-82
2023/10/16 02:27:21;;;;;;;4.70;4.50;;;7.20;99.90;;;;;;5090036;28;20465;-83
2023/10/16 02:29:52;;;;;;;5.63;5.13;;;7.20;99.90;;;;;;5093495;28;20446;-83
2023/10/16 02:32:22;;;;;;;5.20;4.90;;;7.10;99.90;;;;;;5093594;28;20477;-83
2023/10/16 02:34:51;;;;;;;4.73;4.53;;;7.20;99.90;;;;;;5089139;28;20458;-83
2023/10/16 02:37:20;;;;;;;5.00;4.80;;;7.20;99.90;;;;;;5093068;28;20891;-83
2023/10/16 02:39:53;;;;;;;6.87;5.33;;;7.10;96.90;;;;;;5092170;28;20462;-83
2023/10/16 02:42:25;;;;;;;5.00;4.80;;;7.00;98.40;;;;;;5092177;28;20469;-83
2023/10/16 02:44:54;;;;;;;6.20;5.73;;;7.00;99.90;;;;;;5093826;28;20553;-84
2023/10/16 02:47:25;;;;;;;5.20;4.90;;;7.00;99.90;;;;;;5092773;28;20534;-83
2023/10/16 02:49:56;;;;;;;5.10;4.90;;;7.10;99.90;;;;;;5096621;28;20963;-83
2023/10/16 02:52:25;;;;;;;5.30;5.10;;;7.10;99.90;;;;;;5094893;28;20466;-82
2023/10/16 02:54:56;;;;;;;4.60;4.40;;;7.10;99.90;;;;;;5091415;28;20453;-83
2023/10/16 02:57:28;;;;;;;4.93;4.73;;;7.10;95.20;;;;;;5093562;28;20522;-82
2023/10/16 02:59:56;;;;;;;4.87;4.67;;;7.00;96.20;;;;;;5096567;28;20478;-82
2023/10/16 03:02:27;;;;;;;4.73;4.53;;;7.00;96.00;;;;;;5088622;28;21216;-83
2023/10/16 03:05:10;;;;;;;5.30;4.97;;;6.90;97.80;;;;;;5098141;28;20810;-83
2023/10/16 03:07:44;;;;;;;5.43;5.17;;;6.90;99.90;;;;;;5092514;28;20466;-84
2023/10/16 03:10:14;;;;;;;4.80;4.60;;;6.90;99.90;;;;;;5096878;28;21305;-84
2023/10/16 03:12:44;;;;;;;5.63;5.37;;;6.80;99.90;;;;;;5097198;27;21044;-84
2023/10/16 03:15:16;;;;;;;4.77;4.60;;;6.80;99.90;;;;;;5092252;27;20473;-83
2023/10/16 03:17:44;;;;;;;4.77;4.57;;;6.70;99.40;;;;;;5090224;28;20458;-83
2023/10/16 03:20:19;;;;;;;4.80;4.60;;;6.70;99.90;;;;;;5094156;28;21005;-83
2023/10/16 03:22:49;;;;;;;5.00;4.80;;;6.80;99.90;;;;;;5089774;28;20481;-84
2023/10/16 03:25:50;;;;;;;5.20;4.90;;;6.80;99.90;;;;;;5093387;28;20445;-84
2023/10/16 03:28:18;;;;;;;4.60;4.40;;;6.70;99.90;;;;;;5088799;28;20459;-84
2023/10/16 03:30:47;;;;;;;5.17;4.87;;;6.80;99.90;;;;;;5093379;28;20446;-84
2023/10/16 03:33:15;;;;;;;5.13;4.93;;;6.80;99.90;;;;;;5097441;28;20461;-84
2023/10/16 03:35:49;;;;;;;5.23;4.83;;;6.80;99.90;;;;;;5093701;28;20465;-85
2023/10/16 03:38:26;;;;;;;5.17;4.77;;;6.70;98.40;;;;;;5092976;28;20447;-84
2023/10/16 03:40:58;;;;;;;6.10;5.80;;;6.70;98.40;;;;;;5093194;28;20465;-84
2023/10/16 03:43:28;;;;;;;5.27;4.87;;;6.60;99.90;;;;;;5088912;28;20453;-84
2023/10/16 03:45:58;;;;;;;5.10;4.90;;;6.60;99.90;;;;;;5092156;28;20454;-84
2023/10/16 03:48:26;;;;;;;4.73;4.50;;;6.60;99.90;;;;;;5092988;28;20454;-84
2023/10/16 03:50:56;;;;;;;4.77;4.50;;;6.60;99.90;;;;;;5090566;28;20454;-84
2023/10/16 03:53:24;;;;;;;4.80;4.50;;;6.60;99.90;;;;;;5094494;28;20573;-84
2023/10/16 03:55:53;;;;;;;5.00;4.70;;;6.60;99.90;;;;;;5097984;28;20507;-85
2023/10/16 03:58:22;;;;;;;5.00;4.60;;;6.10;99.90;;;;;;5100055;28;20461;-85
2023/10/16 04:00:52;;;;;;;4.90;4.50;;;6.40;99.90;;;;;;5094808;28;20549;-86
2023/10/16 04:03:21;;;;;;;4.80;4.60;;;6.50;99.90;;;;;;5094496;28;20445;-85
2023/10/16 04:05:51;;;;;;;4.33;4.13;;;6.50;99.90;;;;;;5098303;28;20449;-86
2023/10/16 04:08:23;;;;;;;4.83;4.63;;;6.50;99.90;;;;;;5098913;28;20450;-85
2023/10/16 04:10:53;;;;;;;4.93;4.70;;;6.50;99.90;;;;;;5092237;28;20456;-84
2023/10/16 04:13:26;;;;;;;4.57;4.40;;;6.50;99.90;;;;;;5093330;28;20958;-84
2023/10/16 04:16:13;;;;;;;5.17;5.00;;;6.60;99.90;;;;;;5092783;28;20534;-85
2023/10/16 04:18:41;;;;;;;5.13;4.90;;;6.60;99.90;;;;;;5091008;28;20547;-85
2023/10/16 04:21:37;;;;;;;5.53;5.17;;;6.60;99.90;;;;;;5098764;28;20493;-86
2023/10/16 04:24:20;;;;;;;5.33;4.93;;;6.50;99.90;;;;;;5098477;28;20539;-86
2023/10/16 04:26:57;;;;;;;5.80;5.30;;;6.60;99.90;;;;;;5090095;28;20521;-86
2023/10/16 04:29:29;;;;;;;4.60;4.40;;;6.60;99.90;;;;;;5103128;28;20475;-85
2023/10/16 04:32:07;;;;;;;5.00;4.60;;;6.50;99.90;;;;;;5093001;28;20477;-83
2023/10/16 04:34:39;;;;;;;5.00;4.80;;;6.60;99.90;;;;;;5094125;28;20438;-82
2023/10/16 04:37:29;;;;;;;4.40;4.20;;;6.50;99.90;;;;;;5088649;28;20465;-83
2023/10/16 04:45:39;;;;;;;5.33;4.70;;;6.40;99.90;;;;;;5094670;28;21297;-83
2023/10/16 04:48:23;;;;;;;4.70;4.40;;;6.40;99.90;;;;;;5092023;28;20453;-80
2023/10/16 04:51:09;;;;;;;4.70;4.50;;;6.50;99.90;;;;;;5089064;28;20852;-79
2023/10/16 04:53:59;;;;;;;4.83;4.63;;;6.50;99.90;;;;;;5092321;28;20448;-80
2023/10/16 04:56:57;;;;;;;4.90;4.70;;;6.50;98.00;;;;;;5086749;28;20457;-79
2023/10/16 04:59:47;;;;;;;5.10;4.90;;;6.50;95.00;;;;;;5091183;28;20507;-79
2023/10/16 05:02:33;;;;;;;5.10;4.80;;;6.50;95.00;;;;;;5088593;28;20496;-80
2023/10/16 05:13:24;;;;;;;5.13;4.93;;;6.40;99.90;;;;;;5089665;28;20465;-79
2023/10/16 05:15:54;;;;;;;5.20;4.90;;;6.40;99.90;;;;;;5090855;28;20477;-80
2023/10/16 05:18:42;;;;;;;5.30;5.00;;;6.40;99.90;;;;;;5093578;28;20462;-80
2023/10/16 06:16:46;;;;;;;6.10;5.70;;;6.20;99.90;;;;;;5093609;28;20454;-81
2023/10/16 06:19:17;;;;;;;6.80;6.20;;;6.20;99.90;;;;;;5095798;28;20545;-81
2023/10/16 06:21:47;;;;;;;5.87;5.47;;;6.30;99.90;;;;;;5095748;28;20919;-81
2023/10/16 06:24:26;;;;;;;6.57;6.20;;;6.30;99.90;;;;;;5094067;28;20454;-81
2023/10/16 06:26:59;;;;;;;6.10;5.80;;;6.30;99.90;;;;;;5094884;28;20442;-81
2023/10/16 06:29:35;;;;;;;6.43;6.13;;;6.40;99.90;;;;;;5097458;27;20450;-81
2023/10/16 06:32:07;;;;;;;6.40;5.90;;;6.40;99.90;;;;;;5095179;28;20501;-81
2023/10/16 06:34:36;;;;;;;6.20;5.80;;;6.40;99.90;;;;;;5097104;28;21436;-80
2023/10/16 06:37:06;;;;;;;5.90;5.60;;;6.40;99.90;;;;;;5092489;28;20454;-82
2023/10/16 06:39:36;;;;;;;6.70;6.40;;;6.40;99.90;;;;;;5095585;28;20541;-81
2023/10/16 06:42:11;;;;;;;6.90;6.50;;;6.40;99.90;;;;;;5091715;28;20516;-81
2023/10/16 06:44:42;;;;;;;5.93;5.63;;;6.50;99.90;;;;;;5097669;28;20441;-81
2023/10/16 06:47:12;;;;;;;6.67;6.27;;;6.50;99.90;;;;;;5097855;28;20459;-81
2023/10/16 06:49:40;;;;;;;7.10;6.70;;;6.60;99.90;;;;;;5097866;28;20449;-81
2023/10/16 06:52:12;;;;;;;6.40;6.00;;;6.70;99.90;;;;;;5094263;28;20473;-81
2023/10/16 06:54:41;;;;;;;7.10;6.63;;;6.70;99.90;;;;;;5092571;28;20963;-81
2023/10/16 06:57:12;;;;;;;6.73;6.37;;;6.80;99.90;;;;;;5091253;28;20450;-81
2023/10/16 06:59:41;;;;;;;7.33;6.93;;;6.80;99.90;;;;;;5096887;28;20481;-82
2023/10/16 07:02:15;;;;;;;7.50;7.10;;;6.80;99.90;;;;;;5094798;28;20478;-82
2023/10/16 07:04:45;;;;;;;7.93;7.50;;;7.00;99.90;;;;;;5093465;28;20549;-81
2023/10/16 07:07:17;;;;;;;8.10;7.43;;;7.00;99.90;;;;;;5094508;27;20532;-82
2023/10/16 07:09:51;;;;;;;8.27;7.77;;;7.00;99.90;;;;;;5099200;28;20449;-81
2023/10/16 07:12:22;;;;;;;7.43;7.03;;;7.00;99.90;;;;;;5098833;28;20522;-82
2023/10/16 07:14:56;;;;;;;8.90;8.20;;;6.90;99.90;;;;;;5100825;28;20446;-83
2023/10/16 07:17:25;;;;;;;8.00;7.67;;;7.00;99.90;;;;;;5098620;28;20597;-82
2023/10/16 07:19:58;;;;;;;8.20;7.40;;;7.10;99.90;;;;;;5101791;28;20458;-82
2023/10/16 07:22:31;;;;;;;9.33;8.63;;;7.20;99.90;;;;;;5095349;28;20505;-82
2023/10/16 07:25:23;;;;;;;8.33;7.77;;;7.30;99.90;;;;;;5100318;28;20446;-82
2023/10/16 07:27:58;;;;;;;9.30;8.67;;;7.40;99.90;;;;;;5097658;28;20449;-81
2023/10/16 07:30:27;;;;;;;9.27;8.83;;;7.70;99.90;;;;;;5095595;28;21109;-82
2023/10/16 07:32:56;;;;;;;9.37;8.73;;;7.90;99.90;;;;;;5096452;28;20550;-82
2023/10/16 07:35:25;;;;;;;10.30;9.80;;;8.20;99.90;;;;;;5095538;28;20446;-82
2023/10/16 07:37:54;;;;;;;10.77;10.17;;;8.40;99.90;;;;;;5094226;28;20516;-83
2023/10/16 07:40:25;;;;;;;9.93;9.40;;;8.60;99.90;;;;;;5099250;28;20472;-83
2023/10/16 07:42:55;;;;;;;11.07;10.07;;;8.70;99.90;;;;;;5095956;28;20476;-82
2023/10/16 07:45:24;;;;;;;10.50;9.77;;;9.00;99.90;;;;;;5095095;28;20462;-82
2023/10/16 07:47:53;;;;;;;9.97;9.33;;;9.30;99.90;;;;;;5094467;28;21067;-82
2023/10/16 07:50:22;;;;;;;9.43;9.13;;;9.60;99.90;;;;;;5090273;28;20449;-83
2023/10/16 07:52:51;;;;;;;10.57;10.07;;;10.00;99.90;;;;;;5091301;28;20561;-83
2023/10/16 07:55:19;;;;;;;9.30;9.00;;;10.30;99.90;;;;;;5097822;28;21141;-83
2023/10/16 07:57:48;;;;;;;9.93;9.33;;;10.60;99.90;;;;;;5094426;28;20491;-83
2023/10/16 08:00:25;;;;;;;9.93;9.60;;;10.90;99.90;;;;;;5091382;28;20494;-82
2023/10/16 08:03:04;;;;;;;9.43;8.90;;;11.40;99.90;;;;;;5090598;28;20489;-83
2023/10/16 08:05:34;;;;;;;9.63;9.10;;;11.90;99.90;;;;;;5095554;28;20502;-84
2023/10/16 08:08:11;;;;;;;11.23;10.53;;;12.20;99.90;;;;;;5094877;28;20465;-84
2023/10/16 08:10:43;;;;;;;10.90;10.30;;;12.40;92.90;;;;;;5092376;28;20518;-83
2023/10/16 08:13:16;;;;;;;9.87;9.43;;;12.80;91.20;;;;;;5087837;28;20465;-83
2023/10/16 08:15:49;;;;;;;9.17;8.97;;;13.30;92.30;;;;;;5091845;28;20464;-85
2023/10/16 08:18:19;;;;;;;9.43;9.13;;;13.60;84.40;;;;;;5092596;27;20575;-84
2023/10/16 08:21:00;;;;;;;9.80;9.40;;;14.10;81.60;;;;;;5091477;28;20469;-83
2023/10/16 08:23:34;;;;;;;9.63;9.23;;;14.60;93.30;;;;;;5094838;28;20933;-84
2023/10/16 08:26:14;;;;;;;9.63;9.20;;;15.00;72.80;;;;;;5092868;28;20955;-84
2023/10/16 08:28:46;;;;;;;10.30;9.70;;;15.50;72.30;;;;;;5095562;28;20496;-84
2023/10/16 08:31:25;;;;;;;10.73;10.43;;;16.00;86.50;;;;;;5089420;28;20484;-84
2023/10/16 08:33:55;;;;;;;10.40;9.90;;;16.10;67.90;;;;;;5088643;28;20465;-85
2023/10/16 08:36:24;;;;;;;10.00;9.70;;;16.60;68.80;;;;;;5087509;28;20445;-85
2023/10/16 08:38:53;;;;;;;9.53;9.20;;;17.10;66.30;;;;;;5091807;28;20451;-85
2023/10/16 08:41:30;;;;;;;22.67;19.70;;;17.40;66.20;;;;;;5093724;28;20488;-85
2023/10/16 08:44:04;;;;;;;14.77;13.60;;;17.50;64.60;;;;;;5094097;28;20456;-84
2023/10/16 08:46:44;;;;;;;10.03;9.80;;;17.80;64.60;;;;;;5090598;28;20471;-85
2023/10/16 08:49:13;;;;;;;10.63;10.03;;;18.10;62.90;;;;;;5091100;28;20456;-84
2023/10/16 08:51:41;;;;;;;12.77;11.77;;;18.30;61.10;;;;;;5091700;28;20488;-85
2023/10/16 08:56:54;;;;;;;9.67;9.37;;;18.50;60.10;;;;;;5095192;28;20657;-85
2023/10/16 08:59:25;;;;;;;9.20;8.83;;;18.70;59.40;;;;;;5095524;28;20873;-86
2023/10/16 09:02:01;;;;;;;8.77;8.47;;;18.70;56.60;;;;;;5094165;27;20487;-85
2023/10/16 09:04:30;;;;;;;9.00;8.60;;;18.80;56.10;;;;;;5092376;28;20473;-86
2023/10/16 09:06:58;;;;;;;8.60;8.10;;;18.60;54.10;;;;;;5091244;28;20507;-85
2023/10/16 09:09:28;;;;;;;8.70;8.30;;;18.80;54.00;;;;;;5095117;28;20457;-84
2023/10/16 09:12:03;;;;;;;8.57;8.27;;;18.90;55.30;;;;;;5096073;28;20476;-86
2023/10/16 09:14:32;;;;;;;7.53;7.23;;;19.10;54.50;;;;;;5097241;28;20819;-85
2023/10/16 09:17:03;;;;;;;7.90;7.60;;;19.00;53.70;;;;;;5101312;28;20548;-84
2023/10/16 09:19:34;;;;;;;7.30;7.07;;;18.90;49.80;;;;;;5097044;27;20564;-85
2023/10/16 09:22:08;;;;;;;8.10;7.70;;;18.90;48.50;;;;;;5096417;28;20484;-86
2023/10/16 09:24:38;;;;;;;8.20;7.80;;;19.10;49.90;;;;;;5098946;28;20450;-85
2023/10/16 09:27:13;;;;;;;7.37;7.10;;;19.00;50.30;;;;;;5094945;28;20449;-86
2023/10/16 09:29:46;;;;;;;6.77;6.57;;;19.00;48.00;;;;;;5098684;27;20477;-85
2023/10/16 09:32:20;;;;;;;6.63;6.30;;;19.00;59.80;;;;;;5099592;28;20520;-84
2023/10/16 09:34:52;;;;;;;6.37;6.17;;;19.10;46.50;;;;;;5094628;28;20446;-84
2023/10/16 09:37:29;;;;;;;6.10;5.80;;;19.10;46.40;;;;;;5096998;28;20862;-85
2023/10/16 09:40:01;;;;;;;8.97;8.47;;;18.40;38.40;;;;;;5099882;28;20289;-85
2023/10/16 09:42:34;;;;;;;6.50;6.10;;;18.40;39.30;;;;;;5096049;28;20930;-84
2023/10/16 09:45:09;;;;;;;7.30;6.90;;;18.30;36.20;;;;;;5096400;28;20201;-84
2023/10/16 09:47:48;;;;;;;6.27;5.97;;;18.30;37.80;;;;;;5097301;28;20510;-84
2023/10/16 09:50:18;;;;;;;5.43;5.23;;;18.40;39.00;;;;;;5093480;28;21024;-85
2023/10/16 09:52:48;;;;;;;5.90;5.60;;;18.50;40.40;;;;;;5097713;28;20468;-84
2023/10/16 09:55:18;;;;;;;5.13;4.93;;;18.50;40.60;;;;;;5094402;28;20494;-85
2023/10/16 09:57:52;;;;;;;6.10;5.90;;;18.70;41.60;;;;;;5096092;28;20445;-85
2023/10/16 10:00:31;;;;;;;4.80;4.70;;;18.90;43.90;;;;;;5097549;28;20467;-85
2023/10/16 10:03:06;;;;;;;4.70;4.30;;;19.10;44.90;;;;;;5093621;28;20977;-85
2023/10/16 10:05:47;;;;;;;4.17;4.07;;;19.20;43.40;;;;;;5096014;28;20457;-85
2023/10/16 10:08:27;;;;;;;3.83;3.67;;;19.10;40.10;;;;;;5093124;28;20451;-85
2023/10/16 10:11:17;;;;;;;4.60;4.30;;;19.20;39.60;;;;;;5099001;28;20528;-84
2023/10/16 10:14:26;;;;;;;3.87;3.77;;;19.20;39.00;;;;;;5094749;28;20477;-85
2023/10/16 10:17:01;;;;;;;4.40;4.10;;;19.00;33.70;;;;;;5092752;27;20459;-85
2023/10/16 10:19:39;;;;;;;3.50;3.40;;;19.50;39.10;;;;;;5097390;27;20466;-84
2023/10/16 10:22:17;;;;;;;3.73;3.53;;;19.80;40.60;;;;;;5095232;28;20466;-84
2023/10/16 10:24:50;;;;;;;3.60;3.50;;;19.90;41.30;;;;;;5097013;28;20635;-84
2023/10/16 10:27:19;;;;;;;5.20;4.80;;;19.90;40.40;;;;;;5096122;28;20550;-84
2023/10/16 10:29:48;;;;;;;4.03;3.90;;;20.10;41.20;;;;;;5097503;27;20998;-84
2023/10/16 10:32:17;;;;;;;4.40;4.03;;;20.30;42.30;;;;;;5092000;27;20468;-84
2023/10/16 10:34:47;;;;;;;4.00;3.90;;;20.40;42.00;;;;;;5096007;28;20456;-84
2023/10/16 10:37:45;;;;;;;3.70;3.50;;;20.50;44.00;;;;;;5096780;27;20879;-84
2023/10/16 10:40:21;;;;;;;3.57;3.27;;;20.50;42.40;;;;;;5094352;28;20942;-84
2023/10/16 10:42:55;;;;;;;3.73;3.43;;;20.60;43.70;;;;;;5096293;28;20467;-83
2023/10/16 10:45:33;;;;;;;3.70;3.60;;;20.90;46.90;;;;;;5094862;28;20510;-84
2023/10/16 10:48:09;;;;;;;4.33;4.10;;;21.20;48.50;;;;;;5095757;27;20460;-84
2023/10/16 10:50:40;;;;;;;5.17;4.97;;;21.00;44.70;;;;;;5096455;28;20467;-84
2023/10/16 10:53:14;;;;;;;4.90;4.60;;;21.10;45.70;;;;;;5095004;27;21074;-85
2023/10/16 10:55:58;;;;;;;4.10;3.90;;;21.20;46.50;;;;;;5094101;28;20493;-84
2023/10/16 10:58:31;;;;;;;4.60;4.37;;;20.50;35.30;;;;;;5096818;28;20438;-84
2023/10/16 11:01:18;;;;;;;3.93;3.77;;;20.80;41.20;;;;;;5096354;28;20442;-84
2023/10/16 11:03:47;;;;;;;5.33;5.13;;;21.30;45.50;;;;;;5099900;27;20512;-84
2023/10/16 11:06:18;;;;;;;4.87;4.77;;;22.00;53.00;;;;;;5094895;27;22144;-84
2023/10/16 11:08:48;;;;;;;4.73;4.63;;;22.40;56.50;;;;;;5096864;28;20477;-84
2023/10/16 11:11:17;;;;;;;4.37;4.13;;;22.50;56.40;;;;;;5097631;28;20553;-84
2023/10/16 11:13:46;;;;;;;4.63;4.53;;;21.70;44.50;;;;;;5095961;28;21036;-84
2023/10/16 11:16:15;;;;;;;5.03;4.80;;;20.40;29.70;;;;;;5093504;28;20838;-84
2023/10/16 11:18:57;;;;;;;4.40;4.30;;;19.60;23.60;;;;;;5094136;28;20443;-84
2023/10/16 11:21:28;;;;;;;4.20;4.10;;;18.50;13.90;;;;;;5093460;28;20466;-84
2023/10/16 11:24:00;;;;;;;4.57;4.47;;;18.40;14.40;;;;;;5094661;28;20468;-85
2023/10/16 11:26:28;;;;;;;4.70;4.40;;;18.60;16.60;;;;;;5095349;28;20495;-84
2023/10/16 11:29:00;;;;;;;3.80;3.70;;;18.80;18.60;;;;;;5092899;28;20430;-84
2023/10/16 11:31:29;;;;;;;3.47;3.30;;;18.70;18.20;;;;;;5094921;28;20467;-84
2023/10/16 11:34:07;;;;;;;2.83;2.63;;;18.30;14.20;;;;;;5096498;27;20453;-84
2023/10/16 11:36:38;;;;;;;3.30;3.20;;;18.50;16.70;;;;;;5095389;27;20463;-85
2023/10/16 11:39:19;;;;;;;3.27;3.17;;;18.50;17.60;;;;;;5099505;27;20445;-85
2023/10/16 11:41:51;;;;;;;3.30;3.13;;;18.60;17.40;;;;;;5099058;28;20484;-84
2023/10/16 11:44:25;;;;;;;3.10;2.90;;;18.60;17.80;;;;;;5101805;27;20470;-84
2023/10/16 11:46:55;;;;;;;3.23;3.10;;;18.70;17.90;;;;;;5099521;27;20450;-84
2023/10/16 11:49:35;;;;;;;3.40;3.10;;;18.70;18.40;;;;;;5095996;27;20537;-84
2023/10/16 11:52:21;;;;;;;3.70;3.50;;;18.70;18.20;;;;;;5093530;28;20582;-84
2023/10/16 11:54:53;;;;;;;3.20;2.90;;;18.40;14.50;;;;;;5092973;28;20438;-84
2023/10/16 11:57:21;;;;;;;3.27;3.17;;;18.00;11.60;;;;;;5098964;27;20524;-83
2023/10/16 11:59:51;;;;;;;2.70;2.60;;;18.00;12.80;;;;;;5095754;27;20813;-83
2023/10/16 12:02:23;;;;;;;2.63;2.53;;;18.30;13.70;;;;;;5096017;28;20511;-84
2023/10/16 12:04:51;;;;;;;2.77;2.67;;;18.30;12.40;;;;;;5095262;27;20512;-83
2023/10/16 12:07:22;;;;;;;3.40;3.30;;;18.00;9.90;;;;;;5096771;28;20485;-83
2023/10/16 12:09:51;;;;;;;3.73;3.63;;;17.70;7.20;;;;;;5094632;28;20442;-84
2023/10/16 12:12:20;;;;;;;3.70;3.50;;;17.80;9.20;;;;;;5098270;28;20473;-83
2023/10/16 12:14:50;;;;;;;3.47;3.37;;;18.00;10.80;;;;;;5095392;28;20435;-84
2023/10/16 12:17:20;;;;;;;3.73;3.53;;;18.20;14.20;;;;;;5093805;28;20429;-85
2023/10/16 12:19:51;;;;;;;4.03;3.83;;;18.30;13.70;;;;;;5091778;28;20535;-84
2023/10/16 12:22:23;;;;;;;4.53;4.33;;;18.30;14.10;;;;;;5094548;28;20466;-84
2023/10/16 12:24:51;;;;;;;3.30;3.20;;;18.40;15.30;;;;;;5097127;28;20553;-84
2023/10/16 12:27:19;;;;;;;3.70;3.60;;;18.40;13.60;;;;;;5093548;28;21244;-83
2023/10/16 12:29:49;;;;;;;2.97;2.87;;;18.10;10.80;;;;;;5091924;28;20446;-83
2023/10/16 12:32:18;;;;;;;3.00;2.90;;;18.00;9.90;;;;;;5093557;28;20482;-84
2023/10/16 12:34:49;;;;;;;3.37;3.20;;;17.80;8.10;;;;;;5095404;28;20544;-83
2023/10/16 12:37:22;;;;;;;2.97;2.87;;;17.80;7.50;;;;;;5096691;28;21050;-84
2023/10/16 12:39:54;;;;;;;3.00;2.80;;;17.70;7.40;;;;;;5094979;28;20442;-83
2023/10/16 12:42:23;;;;;;;2.80;2.70;;;17.90;9.70;;;;;;5096001;28;20475;-84
2023/10/16 12:44:54;;;;;;;2.93;2.73;;;17.90;9.60;;;;;;5094334;28;20578;-83
2023/10/16 12:47:23;;;;;;;2.93;2.73;;;17.90;8.60;;;;;;5093311;28;20511;-84
2023/10/16 12:50:11;;;;;;;2.70;2.60;;;18.00;8.60;;;;;;5096942;28;20490;-82
2023/10/16 12:52:42;;;;;;;2.63;2.53;;;17.80;7.20;;;;;;5097992;28;20482;-85
2023/10/16 12:55:12;;;;;;;2.97;2.87;;;18.00;8.00;;;;;;5094265;28;20442;-84
2023/10/16 12:57:45;;;;;;;2.93;2.73;;;17.70;4.80;;;;;;5093643;28;20457;-82
2023/10/16 13:00:16;;;;;;;2.70;2.60;;;17.70;3.90;;;;;;5097313;28;20446;-82
2023/10/16 13:02:46;;;;;;;2.20;2.10;;;17.90;6.00;;;;;;5093257;28;20486;-83
2023/10/16 13:05:14;;;;;;;4.13;3.93;;;17.90;6.30;;;;;;5096788;28;21010;-83
2023/10/16 13:07:44;;;;;;;4.17;3.97;;;18.10;8.30;;;;;;5096425;28;20445;-83
2023/10/16 13:10:25;;;;;;;36.93;20.73;;;18.00;7.60;;;;;;5099102;28;20711;-84
2023/10/16 13:12:55;;;;;;;11.33;8.73;;;18.00;8.10;;;;;;5096059;28;20561;-82
2023/10/16 13:15:25;;;;;;;2.93;2.83;;;18.00;8.30;;;;;;5094719;28;20453;-82
2023/10/16 13:17:54;;;;;;;3.97;3.77;;;17.90;6.10;;;;;;5093170;28;20457;-81
2023/10/16 13:20:27;;;;;;;2.80;2.70;;;17.60;2.70;;;;;;5098243;28;20446;-83
2023/10/16 13:22:58;;;;;;;2.80;2.70;;;17.60;2.60;;;;;;5100590;28;21174;-82
2023/10/16 13:25:32;;;;;;;2.80;2.60;;;17.70;4.80;;;;;;5097449;28;20474;-83
2023/10/16 13:28:03;;;;;;;2.33;2.13;;;17.90;6.40;;;;;;5093905;28;20450;-83
2023/10/16 13:30:32;;;;;;;2.30;2.20;;;17.90;6.00;;;;;;5098239;28;21080;-82
2023/10/16 13:33:06;;;;;;;2.20;2.07;;;17.90;5.40;;;;;;5091736;28;20465;-82
2023/10/16 13:35:38;;;;;;;2.57;2.47;;;17.60;2.80;;;;;;5096289;28;20480;-82
2023/10/16 13:38:08;;;;;;;1.70;1.70;;;17.80;4.90;;;;;;5098751;28;20453;-82
2023/10/16 13:40:39;;;;;;;1.90;1.80;;;17.90;5.60;;;;;;5096156;28;20954;-84
2023/10/16 13:43:10;;;;;;;2.00;1.90;;;17.80;4.00;;;;;;5104845;28;20961;-83
2023/10/16 13:45:39;;;;;;;2.50;2.40;;;17.80;4.30;;;;;;5108261;28;20544;-81
2023/10/16 13:48:09;;;;;;;2.27;2.17;;;17.90;4.70;;;;;;5097573;28;20573;-80
2023/10/16 13:50:40;;;;;;;1.90;1.80;;;17.70;2.80;;;;;;5099105;28;20445;-82
2023/10/16 13:53:10;;;;;;;1.90;1.80;;;17.60;1.30;;;;;;5099357;28;20479;-82
2023/10/16 13:55:41;;;;;;;1.80;1.70;;;17.40;1.00;;;;;;5096820;28;21136;-84
2023/10/16 13:58:10;;;;;;;2.70;2.60;;;17.40;1.00;;;;;;5096625;28;20203;-84
2023/10/16 14:00:41;;;;;;;2.10;2.00;;;17.60;2.50;;;;;;5096262;28;20442;-82
2023/10/16 14:03:17;;;;;;;2.03;1.73;;;17.50;1.00;;;;;;5099962;28;20468;-83
2023/10/16 14:05:48;;;;;;;2.07;1.80;;;17.60;1.40;;;;;;5096188;27;20482;-87
2023/10/16 14:08:19;;;;;;;2.00;1.90;;;17.50;1.70;;;;;;5102824;27;20520;-86
2023/10/16 14:10:52;;;;;;;1.60;1.60;;;17.40;1.00;;;;;;5099229;28;20458;-86
2023/10/16 14:13:21;;;;;;;2.50;1.97;;;17.40;1.00;;;;;;5098866;28;20450;-85
2023/10/16 14:15:52;;;;;;;2.10;2.00;;;17.50;1.50;;;;;;5100143;28;20449;-86
2023/10/16 14:18:25;;;;;;;2.53;2.43;;;17.60;2.40;;;;;;5098651;28;20481;-85
2023/10/16 14:20:56;;;;;;;1.87;1.77;;;17.60;1.90;;;;;;5097956;28;20962;-85
2023/10/16 14:23:28;;;;;;;2.60;2.10;;;17.40;1.00;;;;;;5100804;28;20507;-85
2023/10/16 14:25:59;;;;;;;3.00;2.70;;;17.20;1.00;;;;;;5097476;28;20466;-85
2023/10/16 14:28:32;;;;;;;2.23;2.13;;;17.40;1.00;;;;;;5099048;28;21036;-86
2023/10/16 14:31:02;;;;;;;2.00;1.90;;;17.50;1.20;;;;;;5099651;28;20466;-84
2023/10/16 14:33:32;;;;;;;1.90;1.80;;;17.50;2.00;;;;;;5087333;28;20453;-84
2023/10/16 14:36:03;;;;;;;1.90;1.80;;;17.50;1.60;;;;;;5093316;28;20495;-83